Terminal Aerodrome Forecast
Issued by NWS

Home | Current Version | Previous Version | Text Only | Print | Product List | Glossary On
Versions: 1 2 3 4 5 6 7 8 9 10 11 12 13
004
FTUS44 KLZK 191720
TAFPBF
TAF
KPBF 191720Z 1918/2018 18009KT P6SM BKN045 BKN250
      TEMPO 1918/1922 BKN025
     FM200300 18005KT P6SM BKN025 OVC040
     FM200900 17004KT P6SM BKN025
     FM201300 17005KT P6SM -DZ OVC015=

USA.gov is the U.S. government's official web portal to all federal, state and local government web resources and services.